createdAt,value
2019-02-18T00:00:27.656Z,98523.69
2019-02-18T00:02:56.013Z,98523.95
2019-02-18T00:05:24.757Z,98511.12
2019-02-18T00:07:53.170Z,98515.74
2019-02-18T00:10:21.815Z,98519.55
2019-02-18T00:12:50.518Z,98518.70
2019-02-18T00:15:19.201Z,98515.47
2019-02-18T00:17:47.875Z,98516.78
2019-02-18T00:20:16.286Z,98517.31
2019-02-18T00:22:44.675Z,98510.50
2019-02-18T00:25:13.068Z,98521.91
2019-02-18T00:27:41.799Z,98515.91
2019-02-18T00:30:10.192Z,98518.38
2019-02-18T00:32:38.868Z,98518.92
2019-02-18T00:35:07.268Z,98518.91
2019-02-18T00:37:35.930Z,98526.50
2019-02-18T00:40:06.781Z,98525.69
2019-02-18T00:42:35.558Z,98525.66
2019-02-18T00:45:06.904Z,98522.66
2019-02-18T00:47:35.296Z,98525.13
2019-02-18T00:50:04.567Z,98532.52
2019-02-18T00:52:32.990Z,98532.19
2019-02-18T00:55:01.648Z,98526.22
2019-02-18T00:57:30.056Z,98532.50
2019-02-18T00:59:58.704Z,98528.64
2019-02-18T01:02:27.413Z,98525.91
2019-02-18T01:04:56.092Z,98531.61
2019-02-18T01:07:34.226Z,98527.00
2019-02-18T01:09:54.957Z,98526.44
2019-02-18T01:12:23.689Z,98523.69
2019-02-18T01:14:52.355Z,98520.45
2019-02-18T01:17:20.757Z,98528.29
2019-02-18T01:19:49.143Z,98527.16
2019-02-18T01:22:17.798Z,98525.02
2019-02-18T01:24:46.191Z,98528.48
2019-02-18T01:27:14.584Z,98530.11
2019-02-18T01:29:43.242Z,98528.17
2019-02-18T01:32:11.926Z,98524.64
2019-02-18T01:34:40.614Z,98517.82
2019-02-18T01:37:09.304Z,98522.97
2019-02-18T01:39:37.987Z,98525.67
2019-02-18T01:42:06.687Z,98516.96
2019-02-18T01:44:35.362Z,98521.82
2019-02-18T01:47:04.049Z,98522.13
2019-02-18T01:49:32.435Z,98519.08
2019-02-18T01:52:00.865Z,98522.63
2019-02-18T01:54:29.260Z,98514.70
2019-02-18T01:57:17.062Z,98517.64
2019-02-18T01:59:45.476Z,98514.33
2019-02-18T02:02:33.204Z,98507.52
2019-02-18T02:07:40.800Z,98500.16
2019-02-18T02:10:49.116Z,98497.94
2019-02-18T02:13:36.913Z,98498.73
2019-02-18T02:16:45.491Z,98502.37
2019-02-18T02:19:14.240Z,98508.03
2019-02-18T02:22:01.984Z,98502.02
2019-02-18T02:24:30.374Z,98500.66
2019-02-18T02:26:59.100Z,98496.78
2019-02-18T02:29:27.508Z,98492.88
2019-02-18T02:31:56.165Z,98492.64
2019-02-18T02:34:43.935Z,98495.07
2019-02-18T02:37:12.580Z,98494.56
2019-02-18T02:39:40.973Z,98498.63
2019-02-18T02:42:09.386Z,98493.41
2019-02-18T02:44:37.781Z,98491.49
2019-02-18T02:47:06.514Z,98490.40
2019-02-18T02:49:34.965Z,98487.94
2019-02-18T02:52:03.357Z,98484.92
2019-02-18T02:54:32.055Z,98490.37
2019-02-18T02:57:00.469Z,98486.31
2019-02-18T02:59:28.880Z,98489.01
2019-02-18T03:01:57.264Z,98484.92
2019-02-18T03:04:25.983Z,98482.47
2019-02-18T03:06:54.378Z,98484.92
2019-02-18T03:09:22.770Z,98481.84
2019-02-18T03:11:51.545Z,98477.20
2019-02-18T03:14:20.190Z,98478.83
2019-02-18T03:16:48.585Z,98473.05
2019-02-18T03:19:17.271Z,98471.95
2019-02-18T03:21:45.971Z,98473.84
2019-02-18T03:24:14.656Z,98473.84
2019-02-18T03:26:43.331Z,98472.98
2019-02-18T03:29:51.697Z,98472.98
2019-02-18T03:32:20.329Z,98471.92
2019-02-18T03:34:49.018Z,98465.12
2019-02-18T03:37:17.714Z,98465.91
2019-02-18T03:39:46.101Z,98469.89
2019-02-18T03:42:14.515Z,98477.46
2019-02-18T03:44:42.905Z,98480.92
2019-02-18T03:47:11.296Z,98479.26
2019-02-18T03:49:39.956Z,98471.36
2019-02-18T03:52:08.593Z,98475.94
2019-02-18T03:54:37.257Z,98482.88
2019-02-18T03:57:05.900Z,98483.91
2019-02-18T03:59:34.712Z,98472.22
2019-02-18T04:02:03.119Z,98471.98
2019-02-18T04:04:31.514Z,98477.13
2019-02-18T04:07:00.161Z,98471.16
2019-02-18T04:09:28.817Z,98476.56
2019-02-18T04:11:57.214Z,98482.41
2019-02-18T04:14:25.634Z,98472.72
2019-02-18T04:16:54.021Z,98475.94
2019-02-18T04:19:22.433Z,98483.69
2019-02-18T04:21:50.831Z,98481.23
2019-02-18T04:24:19.471Z,98484.25
2019-02-18T04:26:47.870Z,98489.16
2019-02-18T04:29:16.272Z,98488.83
2019-02-18T04:31:44.941Z,98481.23
2019-02-18T04:34:32.924Z,98486.72
2019-02-18T04:37:01.337Z,98482.86
2019-02-18T04:39:29.738Z,98482.93
2019-02-18T04:41:58.424Z,98487.36
2019-02-18T04:44:26.832Z,98488.14
2019-02-18T04:46:55.483Z,98491.87
2019-02-18T04:49:24.171Z,98487.02
2019-02-18T04:51:52.833Z,98484.63
2019-02-18T04:54:21.221Z,98482.55
2019-02-18T04:56:49.921Z,98484.38
2019-02-18T04:59:18.310Z,98485.17
2019-02-18T05:01:46.723Z,98486.72
2019-02-18T05:04:15.120Z,98482.06
2019-02-18T05:06:43.514Z,98488.20
2019-02-18T05:09:11.915Z,98481.05
2019-02-18T05:11:40.602Z,98482.36
2019-02-18T05:14:09.014Z,98482.09
2019-02-18T05:16:37.414Z,98485.08
2019-02-18T05:19:05.795Z,98485.17
2019-02-18T05:21:34.211Z,98487.80
2019-02-18T05:24:02.601Z,98490.73
2019-02-18T05:26:30.997Z,98484.52
2019-02-18T05:28:59.401Z,98478.28
2019-02-18T05:31:28.044Z,98470.70
2019-02-18T05:33:56.728Z,98472.37
2019-02-18T05:36:25.414Z,98466.63
2019-02-18T05:38:54.098Z,98460.55
2019-02-18T05:41:22.895Z,98464.53
2019-02-18T05:43:51.291Z,98464.17
2019-02-18T05:46:19.688Z,98462.91
2019-02-18T05:48:48.338Z,98459.93
2019-02-18T05:51:17.022Z,98461.81
2019-02-18T05:53:45.413Z,98461.90
2019-02-18T05:56:14.083Z,98459.00
2019-02-18T05:58:42.771Z,98451.69
2019-02-18T06:01:11.165Z,98455.50
2019-02-18T06:03:39.832Z,98454.92
2019-02-18T06:06:08.236Z,98461.09
2019-02-18T06:08:36.626Z,98461.58
2019-02-18T06:11:05.017Z,98450.23
2019-02-18T06:13:33.426Z,98455.20
2019-02-18T06:16:01.814Z,98456.11
2019-02-18T06:18:30.202Z,98445.77
2019-02-18T06:20:58.892Z,98454.80
2019-02-18T06:23:27.318Z,98456.38
2019-02-18T06:25:55.704Z,98459.05
2019-02-18T06:28:24.108Z,98465.36
2019-02-18T06:30:54.875Z,98466.86
2019-02-18T06:33:22.938Z,98472.29
2019-02-18T06:35:52.133Z,98476.19
2019-02-18T06:38:20.924Z,98474.00
2019-02-18T06:40:49.621Z,98477.20
2019-02-18T06:43:18.167Z,98478.95
2019-02-18T06:45:48.212Z,98479.83
2019-02-18T06:48:24.091Z,98477.86
2019-02-18T06:50:52.480Z,98486.53
2019-02-18T06:53:20.879Z,98482.77
2019-02-18T06:55:49.622Z,98488.51
2019-02-18T06:58:19.672Z,98486.22
2019-02-18T07:01:01.956Z,98493.28
2019-02-18T07:03:32.259Z,98490.30
2019-02-18T07:06:05.654Z,98493.92
2019-02-18T07:08:42.120Z,98496.16
2019-02-18T07:11:12.468Z,98493.97
2019-02-18T07:13:40.895Z,98493.17
2019-02-18T07:16:09.732Z,98491.09
2019-02-18T07:18:38.405Z,98490.03
2019-02-18T07:21:07.063Z,98480.58
2019-02-18T07:23:35.462Z,98483.97
2019-02-18T07:26:04.090Z,98486.22
2019-02-18T07:28:32.528Z,98484.59
2019-02-18T07:31:01.227Z,98487.08
2019-02-18T07:33:29.638Z,98481.70
2019-02-18T07:35:58.063Z,98487.70
2019-02-18T07:38:26.489Z,98481.75
2019-02-18T07:40:55.357Z,98480.45
2019-02-18T07:43:23.793Z,98490.00
2019-02-18T07:45:52.192Z,98488.30
2019-02-18T07:48:20.603Z,98484.27
2019-02-18T07:50:48.993Z,98485.92
2019-02-18T07:53:17.644Z,98478.39
2019-02-18T07:55:46.104Z,98479.84
2019-02-18T07:58:14.501Z,98476.02
2019-02-18T08:00:42.890Z,98480.46
2019-02-18T08:03:11.342Z,98476.96
2019-02-18T08:05:39.745Z,98478.34
2019-02-18T08:08:08.444Z,98475.64
2019-02-18T08:10:36.852Z,98475.66
2019-02-18T08:13:05.501Z,98475.64
2019-02-18T08:15:34.179Z,98474.35
2019-02-18T08:18:02.872Z,98471.11
2019-02-18T08:20:31.565Z,98467.86
2019-02-18T08:23:00.251Z,98474.41
2019-02-18T08:25:28.928Z,98469.53
2019-02-18T08:27:57.611Z,98466.27
2019-02-18T08:30:26.097Z,98466.56
2019-02-18T08:32:54.775Z,98471.73
2019-02-18T08:35:23.464Z,98473.12
2019-02-18T08:37:51.856Z,98465.50
2019-02-18T08:40:22.670Z,98469.31
2019-02-18T08:42:50.959Z,98469.61
2019-02-18T08:45:19.361Z,98462.23
2019-02-18T08:47:47.771Z,98465.77
2019-02-18T08:50:16.500Z,98464.96
2019-02-18T08:52:45.190Z,98461.94
2019-02-18T08:55:14.260Z,98468.23
2019-02-18T08:57:42.973Z,98463.82
2019-02-18T09:00:16.361Z,98459.73
2019-02-18T09:02:45.067Z,98456.69
2019-02-18T09:05:13.844Z,98456.98
2019-02-18T09:07:42.309Z,98461.05
2019-02-18T09:10:14.603Z,98458.27
2019-02-18T09:12:43.118Z,98467.24
2019-02-18T09:15:14.138Z,98463.66
2019-02-18T09:17:42.136Z,98462.80
2019-02-18T09:20:11.066Z,98452.91
2019-02-18T09:22:57.579Z,98461.06
2019-02-18T09:25:39.697Z,98449.62
2019-02-18T09:28:08.376Z,98448.75
2019-02-18T09:30:38.693Z,98440.25
2019-02-18T09:33:07.339Z,98441.83
2019-02-18T09:35:36.065Z,98440.94
2019-02-18T09:38:04.577Z,98442.49
2019-02-18T09:40:43.958Z,98438.59
2019-02-18T09:43:03.148Z,98444.13
2019-02-18T09:45:31.552Z,98441.06
2019-02-18T09:48:00.207Z,98436.48
2019-02-18T09:50:28.614Z,98433.72
2019-02-18T09:52:57.011Z,98429.45
2019-02-18T09:55:25.409Z,98436.91
2019-02-18T09:57:53.802Z,98426.08
2019-02-18T10:00:22.205Z,98432.08
2019-02-18T10:02:50.644Z,98432.23
2019-02-18T10:05:19.077Z,98426.64
2019-02-18T10:07:47.474Z,98424.27
2019-02-18T10:10:15.863Z,98417.58
2019-02-18T10:12:44.621Z,98418.33
2019-02-18T10:15:13.397Z,98419.29
2019-02-18T10:17:42.128Z,98409.59
2019-02-18T10:20:12.925Z,98409.88
2019-02-18T10:22:41.314Z,98408.84
2019-02-18T10:25:14.007Z,98404.90
2019-02-18T10:27:42.429Z,98405.75
2019-02-18T10:30:11.894Z,98410.52
2019-02-18T10:32:40.283Z,98405.12
2019-02-18T10:35:15.683Z,98401.28
2019-02-18T10:37:44.376Z,98396.02
2019-02-18T10:40:13.162Z,98397.76
2019-02-18T10:42:41.827Z,98397.84
2019-02-18T10:45:29.548Z,98389.50
2019-02-18T10:47:58.242Z,98389.80
2019-02-18T10:50:26.944Z,98381.45
2019-02-18T10:52:55.352Z,98383.86
2019-02-18T10:55:24.001Z,98371.97
2019-02-18T10:57:52.386Z,98372.63
2019-02-18T11:00:20.792Z,98362.86
2019-02-18T11:02:49.465Z,98365.98
2019-02-18T11:05:18.130Z,98358.46
2019-02-18T11:07:46.533Z,98357.22
2019-02-18T11:10:55.099Z,98347.76
2019-02-18T11:13:23.822Z,98351.91
2019-02-18T11:15:52.509Z,98338.78
2019-02-18T11:18:20.914Z,98336.23
2019-02-18T11:20:49.300Z,98331.50
2019-02-18T11:23:17.706Z,98333.56
2019-02-18T11:25:48.066Z,98329.31
2019-02-18T11:28:16.454Z,98323.80
2019-02-18T11:31:04.440Z,98319.13
2019-02-18T11:33:32.853Z,98315.64
2019-02-18T11:36:02.991Z,98299.77
2019-02-18T11:38:31.664Z,98295.13
2019-02-18T11:41:00.060Z,98302.09
2019-02-18T11:43:28.758Z,98288.52
2019-02-18T11:45:57.148Z,98292.03
2019-02-18T11:48:25.820Z,98285.20
2019-02-18T11:50:54.594Z,98285.45
2019-02-18T11:53:23.005Z,98286.73
2019-02-18T11:55:51.393Z,98276.67
2019-02-18T11:58:20.053Z,98272.83
2019-02-18T12:00:48.739Z,98271.66
2019-02-18T12:03:17.144Z,98264.70
2019-02-18T12:05:46.108Z,98265.59
2019-02-18T12:08:14.796Z,98266.25
2019-02-18T12:10:43.483Z,98260.16
2019-02-18T12:13:12.166Z,98266.42
2019-02-18T12:15:40.869Z,98261.22
2019-02-18T12:18:09.541Z,98256.08
2019-02-18T12:20:38.168Z,98251.35
2019-02-18T12:23:06.748Z,98244.21
2019-02-18T12:25:35.497Z,98241.48
2019-02-18T12:28:04.028Z,98239.23
2019-02-18T12:30:32.778Z,98231.50
2019-02-18T12:33:01.453Z,98224.07
2019-02-18T12:35:31.224Z,98227.73
2019-02-18T12:38:00.278Z,98221.48
2019-02-18T12:40:28.668Z,98215.05
2019-02-18T12:42:57.076Z,98220.29
2019-02-18T12:45:25.472Z,98219.58
2019-02-18T12:47:53.956Z,98218.41
2019-02-18T12:50:22.669Z,98205.41
2019-02-18T12:52:51.104Z,98209.38
2019-02-18T12:55:19.565Z,98207.70
2019-02-18T12:57:47.978Z,98198.04
2019-02-18T13:00:17.238Z,98193.38
2019-02-18T13:02:45.779Z,98190.62
2019-02-18T13:05:14.695Z,98178.95
2019-02-18T13:07:43.139Z,98178.95
2019-02-18T13:10:12.413Z,98177.71
2019-02-18T13:12:41.257Z,98171.25
2019-02-18T13:15:17.869Z,98167.11
2019-02-18T13:17:46.705Z,98165.83
2019-02-18T13:20:15.128Z,98157.59
2019-02-18T13:22:43.643Z,98156.52
2019-02-18T13:25:12.097Z,98152.45
2019-02-18T13:27:40.488Z,98156.16
2019-02-18T13:30:11.785Z,98156.87
2019-02-18T13:32:40.254Z,98154.03
2019-02-18T13:35:08.661Z,98147.93
2019-02-18T13:37:37.325Z,98143.06
2019-02-18T13:40:06.523Z,98143.06
2019-02-18T13:42:34.926Z,98145.55
2019-02-18T13:45:04.301Z,98145.55
2019-02-18T13:47:32.703Z,98143.25
2019-02-18T13:50:01.165Z,98135.16
2019-02-18T13:52:29.569Z,98134.16
2019-02-18T13:54:58.031Z,98134.16
2019-02-18T13:57:26.809Z,98130.14
2019-02-18T13:59:55.586Z,98130.14
2019-02-18T14:02:23.978Z,98125.98
2019-02-18T14:04:52.372Z,98125.98
2019-02-18T14:07:20.769Z,98124.41
2019-02-18T14:09:49.524Z,98122.61
2019-02-18T14:12:18.204Z,98122.61
2019-02-18T14:14:46.892Z,98117.52
2019-02-18T14:17:15.540Z,98113.32
2019-02-18T14:19:44.261Z,98115.80
2019-02-18T14:22:13.030Z,98112.09
2019-02-18T14:24:41.422Z,98108.41
2019-02-18T14:27:10.119Z,98098.08
2019-02-18T14:29:38.523Z,98112.09
2019-02-18T14:32:07.261Z,98116.16
2019-02-18T14:34:35.648Z,98108.20
2019-02-18T14:37:04.054Z,98108.20
2019-02-18T14:39:32.850Z,98092.06
2019-02-18T14:42:01.380Z,98092.06
2019-02-18T14:44:29.836Z,98106.12
2019-02-18T14:46:58.540Z,98106.12
2019-02-18T14:49:26.929Z,98099.63
2019-02-18T14:51:55.556Z,98092.15
2019-02-18T14:54:24.396Z,98094.70
2019-02-18T14:56:53.020Z,98087.47
2019-02-18T14:59:21.489Z,98097.61
2019-02-18T15:01:49.952Z,98097.47
2019-02-18T15:04:18.717Z,98089.52
2019-02-18T15:06:47.969Z,98091.59
2019-02-18T15:09:16.432Z,98082.16
2019-02-18T15:11:45.132Z,98082.16
2019-02-18T15:14:13.523Z,98074.76
2019-02-18T15:16:41.926Z,98071.86
2019-02-18T15:19:10.709Z,98063.29
2019-02-18T15:21:39.482Z,98064.02
2019-02-18T15:24:08.153Z,98058.95
2019-02-18T15:26:36.610Z,98058.95
2019-02-18T15:29:05.424Z,98061.39
2019-02-18T15:31:34.114Z,98053.08
2019-02-18T15:34:02.504Z,98053.08
2019-02-18T15:36:30.916Z,98059.69
2019-02-18T15:38:59.362Z,98053.11
2019-02-18T15:41:27.818Z,98053.11
2019-02-18T15:43:56.222Z,98058.02
2019-02-18T15:46:24.844Z,98054.23
2019-02-18T15:48:53.245Z,98046.92
2019-02-18T15:51:21.914Z,98047.73
2019-02-18T15:53:50.640Z,98043.42
2019-02-18T15:56:19.109Z,98043.42
2019-02-18T15:58:47.499Z,98037.13
2019-02-18T16:01:15.898Z,98040.00
2019-02-18T16:03:44.290Z,98040.94
2019-02-18T16:06:13.025Z,98040.23
2019-02-18T16:08:41.438Z,98039.95
2019-02-18T16:11:09.847Z,98036.33
2019-02-18T16:13:38.263Z,98035.36
2019-02-18T16:16:06.977Z,98038.96
2019-02-18T16:18:35.662Z,98036.40
2019-02-18T16:21:04.347Z,98031.59
2019-02-18T16:23:32.922Z,98030.13
2019-02-18T16:26:01.319Z,98031.77
2019-02-18T16:28:29.993Z,98034.03
2019-02-18T16:30:58.398Z,98031.53
2019-02-18T16:33:27.055Z,98038.58
2019-02-18T16:35:55.697Z,98032.82
2019-02-18T16:38:24.435Z,98031.84
2019-02-18T16:40:52.843Z,98036.60
2019-02-18T16:43:21.901Z,98042.47
2019-02-18T16:45:50.295Z,98046.32
2019-02-18T16:48:18.958Z,98042.68
2019-02-18T16:50:47.652Z,98040.50
2019-02-18T16:53:16.644Z,98048.03
2019-02-18T16:55:45.068Z,98048.91
2019-02-18T16:58:13.705Z,98048.83
2019-02-18T17:00:42.501Z,98049.29
2019-02-18T17:03:11.190Z,98051.18
2019-02-18T17:05:39.981Z,98052.16
2019-02-18T17:08:08.661Z,98059.11
2019-02-18T17:10:37.458Z,98055.80
2019-02-18T17:13:08.421Z,98057.28
2019-02-18T17:15:36.265Z,98055.88
2019-02-18T17:18:04.896Z,98054.79
2019-02-18T17:20:33.622Z,98053.49
2019-02-18T17:23:02.256Z,98056.74
2019-02-18T17:25:31.332Z,98047.37
2019-02-18T17:27:59.713Z,98052.33
2019-02-18T17:30:28.111Z,98058.56
2019-02-18T17:32:56.500Z,98059.80
2019-02-18T17:35:25.242Z,98062.81
2019-02-18T17:37:53.934Z,98056.52
2019-02-18T17:40:22.708Z,98055.42
2019-02-18T17:42:51.106Z,98050.02
2019-02-18T17:45:19.824Z,98052.73
2019-02-18T17:47:48.224Z,98055.34
2019-02-18T17:50:56.515Z,98061.38
2019-02-18T17:53:25.192Z,98063.11
2019-02-18T17:55:53.586Z,98064.19
2019-02-18T17:58:41.551Z,98070.45
2019-02-18T18:01:10.113Z,98068.95
2019-02-18T18:03:38.730Z,98069.17
2019-02-18T18:06:07.124Z,98068.16
2019-02-18T18:08:35.753Z,98065.13
2019-02-18T18:11:04.222Z,98068.00
2019-02-18T18:13:32.902Z,98068.46
2019-02-18T18:16:03.085Z,98068.75
2019-02-18T18:18:31.812Z,98072.48
2019-02-18T18:21:00.195Z,98070.63
2019-02-18T18:23:28.591Z,98072.64
2019-02-18T18:25:56.986Z,98074.91
2019-02-18T18:28:25.716Z,98072.23
2019-02-18T18:30:54.105Z,98075.81
2019-02-18T18:33:22.777Z,98075.52
2019-02-18T18:35:51.175Z,98079.80
2019-02-18T18:38:19.560Z,98083.36
2019-02-18T18:40:47.958Z,98082.13
2019-02-18T18:43:16.604Z,98079.73
2019-02-18T18:45:45.004Z,98085.69
2019-02-18T18:48:13.388Z,98083.11
2019-02-18T18:50:42.049Z,98089.62
2019-02-18T18:53:10.426Z,98082.68
2019-02-18T18:55:39.108Z,98082.72
2019-02-18T18:58:07.510Z,98084.09
2019-02-18T19:00:36.171Z,98083.36
2019-02-18T19:03:06.297Z,98088.44
2019-02-18T19:05:34.924Z,98083.31
2019-02-18T19:08:03.332Z,98083.30
2019-02-18T19:10:31.710Z,98087.50
2019-02-18T19:13:00.099Z,98081.40
2019-02-18T19:15:28.738Z,98085.84
2019-02-18T19:17:58.838Z,98086.34
2019-02-18T19:20:27.504Z,98084.27
2019-02-18T19:22:55.928Z,98088.92
2019-02-18T19:25:24.390Z,98092.92
2019-02-18T19:27:52.782Z,98090.95
2019-02-18T19:30:40.507Z,98084.51
2019-02-18T19:33:08.891Z,98090.34
2019-02-18T19:35:37.287Z,98090.31
2019-02-18T19:38:05.670Z,98095.17
2019-02-18T19:40:34.055Z,98092.42
2019-02-18T19:43:02.487Z,98095.69
2019-02-18T19:45:30.924Z,98093.72
2019-02-18T19:47:59.618Z,98089.05
2019-02-18T19:50:28.306Z,98094.95
2019-02-18T19:52:57.003Z,98098.73
2019-02-18T19:55:25.573Z,98103.28
2019-02-18T19:57:55.796Z,98101.75
2019-02-18T20:00:24.191Z,98103.53
2019-02-18T20:02:52.877Z,98099.72
2019-02-18T20:05:21.546Z,98098.73
2019-02-18T20:07:50.340Z,98103.46
2019-02-18T20:10:19.035Z,98100.48
2019-02-18T20:12:47.668Z,98104.58
2019-02-18T20:15:56.342Z,98103.52
2019-02-18T20:18:25.036Z,98087.77
2019-02-18T20:20:55.471Z,98112.02
2019-02-18T20:23:24.128Z,98110.28
2019-02-18T20:25:52.810Z,98111.65
2019-02-18T20:28:40.957Z,98120.84
2019-02-18T20:31:11.395Z,98114.64
2019-02-18T20:33:40.067Z,98112.63
2019-02-18T20:36:08.723Z,98115.05
2019-02-18T20:38:37.444Z,98112.38
2019-02-18T20:41:05.953Z,98120.77
2019-02-18T20:43:34.343Z,98115.61
2019-02-18T20:46:03.098Z,98123.63
2019-02-18T20:48:31.487Z,98120.73
2019-02-18T20:50:59.885Z,98122.49
2019-02-18T20:53:28.532Z,98125.30
2019-02-18T20:55:56.949Z,98123.92
2019-02-18T20:58:25.339Z,98123.50
2019-02-18T21:00:53.896Z,98134.44
2019-02-18T21:03:22.289Z,98123.05
2019-02-18T21:05:50.919Z,98123.45
2019-02-18T21:08:19.320Z,98114.81
2019-02-18T21:10:47.747Z,98114.39
2019-02-18T21:13:16.148Z,98119.80
2019-02-18T21:15:44.539Z,98119.87
2019-02-18T21:18:15.187Z,98123.78
2019-02-18T21:21:03.256Z,98119.44
2019-02-18T21:23:31.668Z,98123.73
2019-02-18T21:26:00.059Z,98130.52
2019-02-18T21:28:28.683Z,98131.37
2019-02-18T21:30:57.087Z,98133.34
2019-02-18T21:33:25.735Z,98124.97
2019-02-18T21:35:54.175Z,98130.27
2019-02-18T21:38:22.572Z,98134.96
2019-02-18T21:40:50.979Z,98127.13
2019-02-18T21:43:19.659Z,98130.72
2019-02-18T21:45:48.282Z,98140.87
2019-02-18T21:48:16.713Z,98139.55
2019-02-18T21:50:45.424Z,98140.84
2019-02-18T21:53:13.929Z,98145.26
2019-02-18T21:55:42.575Z,98143.98
2019-02-18T21:58:11.263Z,98145.90
2019-02-18T22:00:39.928Z,98143.25
2019-02-18T22:03:08.321Z,98143.28
2019-02-18T22:05:37.011Z,98146.56
2019-02-18T22:08:05.707Z,98144.62
2019-02-18T22:10:34.102Z,98141.80
2019-02-18T22:13:02.490Z,98140.48
2019-02-18T22:15:30.898Z,98145.44
2019-02-18T22:17:59.532Z,98141.38
2019-02-18T22:20:27.911Z,98147.42
2019-02-18T22:22:56.611Z,98149.11
2019-02-18T22:25:25.271Z,98148.85
2019-02-18T22:27:53.982Z,98146.63
2019-02-18T22:30:22.384Z,98158.12
2019-02-18T22:32:50.807Z,98161.93
2019-02-18T22:35:19.279Z,98153.70
2019-02-18T22:37:47.691Z,98161.36
2019-02-18T22:40:16.206Z,98155.10
2019-02-18T22:42:44.973Z,98149.67
2019-02-18T22:45:53.314Z,98153.77
2019-02-18T22:48:21.947Z,98153.52
2019-02-18T22:51:09.684Z,98153.83
2019-02-18T22:53:57.762Z,98160.39
2019-02-18T22:56:26.418Z,98159.00
2019-02-18T22:58:54.809Z,98160.13
2019-02-18T23:02:03.120Z,98165.03
2019-02-18T23:04:31.783Z,98164.72
2019-02-18T23:07:00.212Z,98170.45
2019-02-18T23:09:28.671Z,98170.19
2019-02-18T23:11:57.065Z,98169.69
2019-02-18T23:14:27.451Z,98171.00
2019-02-18T23:16:56.134Z,98172.88
2019-02-18T23:19:24.535Z,98176.19
2019-02-18T23:21:53.199Z,98184.96
2019-02-18T23:24:21.886Z,98184.97
2019-02-18T23:26:50.277Z,98192.89
2019-02-18T23:29:18.954Z,98191.53
2019-02-18T23:31:49.087Z,98189.08
2019-02-18T23:34:17.471Z,98182.24
2019-02-18T23:36:45.885Z,98188.55
2019-02-18T23:39:14.562Z,98195.66
2019-02-18T23:41:42.979Z,98187.77
2019-02-18T23:44:30.781Z,98191.02
2019-02-18T23:46:59.459Z,98186.42
2019-02-18T23:49:27.861Z,98194.59
2019-02-18T23:51:56.255Z,98192.68
2019-02-18T23:54:25.010Z,98195.39
2019-02-18T23:56:53.409Z,98191.57
2019-02-18T23:59:21.817Z,98197.05
